sensor_id;sensor_type;location;lat;lon;timestamp;P1;durP1;ratioP1;P2;durP2;ratioP2
2538;SDS011;1280;49.760;9.664;2023-03-19T00:02:07;55.70;;;24.70;;
2538;SDS011;1280;49.760;9.664;2023-03-19T00:04:43;121.70;;;45.63;;
2538;SDS011;1280;49.760;9.664;2023-03-19T00:07:11;33.73;;;14.40;;
2538;SDS011;1280;49.760;9.664;2023-03-19T00:09:42;38.17;;;18.13;;
2538;SDS011;1280;49.760;9.664;2023-03-19T00:12:13;47.07;;;22.40;;
2538;SDS011;1280;49.760;9.664;2023-03-19T00:14:41;57.73;;;24.27;;
2538;SDS011;1280;49.760;9.664;2023-03-19T00:17:09;40.27;;;18.60;;
2538;SDS011;1280;49.760;9.664;2023-03-19T00:19:37;22.23;;;12.70;;
2538;SDS011;1280;49.760;9.664;2023-03-19T00:22:06;13.67;;;9.40;;
2538;SDS011;1280;49.760;9.664;2023-03-19T00:24:34;21.70;;;11.43;;
2538;SDS011;1280;49.760;9.664;2023-03-19T00:27:04;19.33;;;12.07;;
2538;SDS011;1280;49.760;9.664;2023-03-19T00:29:32;47.37;;;21.53;;
2538;SDS011;1280;49.760;9.664;2023-03-19T00:32:00;110.63;;;42.00;;
2538;SDS011;1280;49.760;9.664;2023-03-19T00:34:28;77.67;;;31.83;;
2538;SDS011;1280;49.760;9.664;2023-03-19T00:36:56;31.90;;;15.80;;
2538;SDS011;1280;49.760;9.664;2023-03-19T00:39:24;22.10;;;12.13;;
2538;SDS011;1280;49.760;9.664;2023-03-19T00:41:52;17.90;;;9.97;;
2538;SDS011;1280;49.760;9.664;2023-03-19T00:44:22;16.50;;;11.13;;
2538;SDS011;1280;49.760;9.664;2023-03-19T00:46:49;14.80;;;10.33;;
2538;SDS011;1280;49.760;9.664;2023-03-19T00:49:17;14.03;;;9.53;;
2538;SDS011;1280;49.760;9.664;2023-03-19T00:51:46;14.20;;;9.33;;
2538;SDS011;1280;49.760;9.664;2023-03-19T00:54:14;12.73;;;8.33;;
2538;SDS011;1280;49.760;9.664;2023-03-19T00:56:42;14.03;;;8.13;;
2538;SDS011;1280;49.760;9.664;2023-03-19T00:59:14;13.90;;;8.23;;
2538;SDS011;1280;49.760;9.664;2023-03-19T01:01:43;14.90;;;7.80;;
2538;SDS011;1280;49.760;9.664;2023-03-19T01:04:11;12.90;;;6.70;;
2538;SDS011;1280;49.760;9.664;2023-03-19T01:06:40;14.10;;;7.57;;
2538;SDS011;1280;49.760;9.664;2023-03-19T01:09:09;12.83;;;7.43;;
2538;SDS011;1280;49.760;9.664;2023-03-19T01:11:37;10.73;;;7.27;;
2538;SDS011;1280;49.760;9.664;2023-03-19T01:14:04;11.50;;;6.17;;
2538;SDS011;1280;49.760;9.664;2023-03-19T01:16:33;13.00;;;7.17;;
2538;SDS011;1280;49.760;9.664;2023-03-19T01:19:02;16.13;;;6.23;;
2538;SDS011;1280;49.760;9.664;2023-03-19T01:21:31;8.37;;;5.33;;
2538;SDS011;1280;49.760;9.664;2023-03-19T01:24:01;11.70;;;6.27;;
2538;SDS011;1280;49.760;9.664;2023-03-19T01:26:29;56.47;;;17.77;;
2538;SDS011;1280;49.760;9.664;2023-03-19T01:29:10;55.10;;;19.30;;
2538;SDS011;1280;49.760;9.664;2023-03-19T01:31:38;108.97;;;28.83;;
2538;SDS011;1280;49.760;9.664;2023-03-19T01:34:22;70.73;;;18.27;;
2538;SDS011;1280;49.760;9.664;2023-03-19T01:36:55;40.53;;;12.47;;
2538;SDS011;1280;49.760;9.664;2023-03-19T01:39:30;25.57;;;11.30;;
2538;SDS011;1280;49.760;9.664;2023-03-19T01:42:02;41.33;;;13.80;;
2538;SDS011;1280;49.760;9.664;2023-03-19T01:44:53;40.57;;;14.23;;
2538;SDS011;1280;49.760;9.664;2023-03-19T01:47:24;131.50;;;42.70;;
2538;SDS011;1280;49.760;9.664;2023-03-19T01:50:11;27.33;;;12.97;;
2538;SDS011;1280;49.760;9.664;2023-03-19T01:52:58;18.60;;;11.70;;
2538;SDS011;1280;49.760;9.664;2023-03-19T01:55:40;22.80;;;11.73;;
2538;SDS011;1280;49.760;9.664;2023-03-19T01:58:15;45.73;;;17.93;;
2538;SDS011;1280;49.760;9.664;2023-03-19T02:01:06;73.07;;;24.80;;
2538;SDS011;1280;49.760;9.664;2023-03-19T02:03:40;59.03;;;22.37;;
2538;SDS011;1280;49.760;9.664;2023-03-19T02:06:17;40.30;;;17.90;;
2538;SDS011;1280;49.760;9.664;2023-03-19T02:08:47;34.47;;;15.30;;
2538;SDS011;1280;49.760;9.664;2023-03-19T02:11:16;41.90;;;16.63;;
2538;SDS011;1280;49.760;9.664;2023-03-19T02:13:45;45.27;;;15.40;;
2538;SDS011;1280;49.760;9.664;2023-03-19T02:16:14;30.43;;;13.30;;
2538;SDS011;1280;49.760;9.664;2023-03-19T02:18:42;48.90;;;20.77;;
2538;SDS011;1280;49.760;9.664;2023-03-19T02:21:12;49.93;;;20.70;;
2538;SDS011;1280;49.760;9.664;2023-03-19T02:23:46;14.27;;;7.90;;
2538;SDS011;1280;49.760;9.664;2023-03-19T02:26:35;15.30;;;8.83;;
2538;SDS011;1280;49.760;9.664;2023-03-19T02:29:05;33.67;;;15.33;;
2538;SDS011;1280;49.760;9.664;2023-03-19T02:31:34;19.93;;;8.93;;
2538;SDS011;1280;49.760;9.664;2023-03-19T02:34:05;19.83;;;11.07;;
2538;SDS011;1280;49.760;9.664;2023-03-19T02:36:56;13.70;;;8.97;;
2538;SDS011;1280;49.760;9.664;2023-03-19T02:39:29;15.57;;;7.57;;
2538;SDS011;1280;49.760;9.664;2023-03-19T02:42:03;15.07;;;8.40;;
2538;SDS011;1280;49.760;9.664;2023-03-19T02:44:32;15.90;;;8.37;;
2538;SDS011;1280;49.760;9.664;2023-03-19T02:47:02;28.50;;;14.00;;
2538;SDS011;1280;49.760;9.664;2023-03-19T02:49:30;24.83;;;11.30;;
2538;SDS011;1280;49.760;9.664;2023-03-19T02:51:59;16.60;;;8.87;;
2538;SDS011;1280;49.760;9.664;2023-03-19T02:54:28;12.23;;;6.73;;
2538;SDS011;1280;49.760;9.664;2023-03-19T02:56:57;11.53;;;6.60;;
2538;SDS011;1280;49.760;9.664;2023-03-19T02:59:27;17.80;;;9.90;;
2538;SDS011;1280;49.760;9.664;2023-03-19T03:01:55;17.70;;;9.17;;
2538;SDS011;1280;49.760;9.664;2023-03-19T03:04:23;24.63;;;11.47;;
2538;SDS011;1280;49.760;9.664;2023-03-19T03:06:51;25.43;;;11.97;;
2538;SDS011;1280;49.760;9.664;2023-03-19T03:09:20;28.57;;;12.83;;
2538;SDS011;1280;49.760;9.664;2023-03-19T03:11:49;21.27;;;11.10;;
2538;SDS011;1280;49.760;9.664;2023-03-19T03:14:17;20.03;;;9.67;;
2538;SDS011;1280;49.760;9.664;2023-03-19T03:16:50;21.33;;;9.77;;
2538;SDS011;1280;49.760;9.664;2023-03-19T03:19:19;41.77;;;19.43;;
2538;SDS011;1280;49.760;9.664;2023-03-19T03:21:49;26.03;;;12.47;;
2538;SDS011;1280;49.760;9.664;2023-03-19T03:24:17;13.70;;;7.30;;
2538;SDS011;1280;49.760;9.664;2023-03-19T03:26:46;15.30;;;7.70;;
2538;SDS011;1280;49.760;9.664;2023-03-19T03:29:14;12.67;;;7.30;;
2538;SDS011;1280;49.760;9.664;2023-03-19T03:31:43;12.50;;;6.67;;
2538;SDS011;1280;49.760;9.664;2023-03-19T03:34:13;11.57;;;6.53;;
2538;SDS011;1280;49.760;9.664;2023-03-19T03:36:42;12.17;;;6.93;;
2538;SDS011;1280;49.760;9.664;2023-03-19T03:39:11;14.67;;;7.93;;
2538;SDS011;1280;49.760;9.664;2023-03-19T03:41:40;15.63;;;7.90;;
2538;SDS011;1280;49.760;9.664;2023-03-19T03:44:08;12.30;;;7.47;;
2538;SDS011;1280;49.760;9.664;2023-03-19T03:46:38;13.20;;;7.70;;
2538;SDS011;1280;49.760;9.664;2023-03-19T03:49:08;13.20;;;8.53;;
2538;SDS011;1280;49.760;9.664;2023-03-19T03:51:38;18.53;;;11.10;;
2538;SDS011;1280;49.760;9.664;2023-03-19T03:54:06;27.03;;;13.40;;
2538;SDS011;1280;49.760;9.664;2023-03-19T03:56:34;20.80;;;12.90;;
2538;SDS011;1280;49.760;9.664;2023-03-19T03:59:02;15.53;;;9.70;;
2538;SDS011;1280;49.760;9.664;2023-03-19T04:01:30;13.33;;;8.77;;
2538;SDS011;1280;49.760;9.664;2023-03-19T04:03:59;16.97;;;8.73;;
2538;SDS011;1280;49.760;9.664;2023-03-19T04:06:27;17.17;;;8.80;;
2538;SDS011;1280;49.760;9.664;2023-03-19T04:09:17;34.50;;;18.00;;
2538;SDS011;1280;49.760;9.664;2023-03-19T04:11:45;16.03;;;9.37;;
2538;SDS011;1280;49.760;9.664;2023-03-19T04:14:16;14.43;;;7.97;;
2538;SDS011;1280;49.760;9.664;2023-03-19T04:16:44;14.00;;;6.97;;
2538;SDS011;1280;49.760;9.664;2023-03-19T04:19:12;12.40;;;7.30;;
2538;SDS011;1280;49.760;9.664;2023-03-19T04:21:40;13.10;;;8.33;;
2538;SDS011;1280;49.760;9.664;2023-03-19T04:24:11;12.13;;;8.47;;
2538;SDS011;1280;49.760;9.664;2023-03-19T04:26:41;15.40;;;8.60;;
2538;SDS011;1280;49.760;9.664;2023-03-19T04:29:09;13.37;;;8.37;;
2538;SDS011;1280;49.760;9.664;2023-03-19T04:31:37;19.63;;;10.07;;
2538;SDS011;1280;49.760;9.664;2023-03-19T04:34:05;13.07;;;8.63;;
2538;SDS011;1280;49.760;9.664;2023-03-19T04:36:33;20.40;;;9.40;;
2538;SDS011;1280;49.760;9.664;2023-03-19T04:39:02;13.40;;;7.90;;
2538;SDS011;1280;49.760;9.664;2023-03-19T04:41:30;14.73;;;8.50;;
2538;SDS011;1280;49.760;9.664;2023-03-19T04:44:20;18.37;;;8.97;;
2538;SDS011;1280;49.760;9.664;2023-03-19T04:46:48;12.53;;;8.40;;
2538;SDS011;1280;49.760;9.664;2023-03-19T04:49:18;11.83;;;7.77;;
2538;SDS011;1280;49.760;9.664;2023-03-19T04:51:51;17.70;;;8.80;;
2538;SDS011;1280;49.760;9.664;2023-03-19T04:54:18;15.30;;;9.93;;
2538;SDS011;1280;49.760;9.664;2023-03-19T04:56:46;14.73;;;9.60;;
2538;SDS011;1280;49.760;9.664;2023-03-19T04:59:15;15.53;;;8.57;;
2538;SDS011;1280;49.760;9.664;2023-03-19T05:01:44;16.77;;;8.00;;
2538;SDS011;1280;49.760;9.664;2023-03-19T05:04:17;13.20;;;7.33;;
2538;SDS011;1280;49.760;9.664;2023-03-19T05:06:46;11.43;;;7.00;;
2538;SDS011;1280;49.760;9.664;2023-03-19T05:09:15;10.33;;;6.67;;
2538;SDS011;1280;49.760;9.664;2023-03-19T05:11:43;11.50;;;4.87;;
2538;SDS011;1280;49.760;9.664;2023-03-19T05:14:16;8.87;;;5.03;;
2538;SDS011;1280;49.760;9.664;2023-03-19T05:17:12;8.57;;;3.83;;
2538;SDS011;1280;49.760;9.664;2023-03-19T05:19:54;6.33;;;3.90;;
2538;SDS011;1280;49.760;9.664;2023-03-19T05:22:23;11.20;;;4.60;;
2538;SDS011;1280;49.760;9.664;2023-03-19T05:24:52;6.03;;;3.70;;
2538;SDS011;1280;49.760;9.664;2023-03-19T05:27:20;12.13;;;3.90;;
2538;SDS011;1280;49.760;9.664;2023-03-19T05:29:56;7.93;;;4.10;;
2538;SDS011;1280;49.760;9.664;2023-03-19T05:32:46;9.27;;;3.93;;
2538;SDS011;1280;49.760;9.664;2023-03-19T05:35:24;9.53;;;3.83;;
2538;SDS011;1280;49.760;9.664;2023-03-19T05:37:54;8.30;;;4.33;;
2538;SDS011;1280;49.760;9.664;2023-03-19T05:40:23;6.27;;;3.87;;
2538;SDS011;1280;49.760;9.664;2023-03-19T05:42:53;6.50;;;3.80;;
2538;SDS011;1280;49.760;9.664;2023-03-19T05:45:24;11.20;;;4.87;;
2538;SDS011;1280;49.760;9.664;2023-03-19T05:47:56;7.53;;;4.10;;
2538;SDS011;1280;49.760;9.664;2023-03-19T05:50:25;7.77;;;4.27;;
2538;SDS011;1280;49.760;9.664;2023-03-19T05:53:13;8.40;;;3.90;;
2538;SDS011;1280;49.760;9.664;2023-03-19T05:55:50;8.00;;;4.20;;
2538;SDS011;1280;49.760;9.664;2023-03-19T05:58:22;7.13;;;4.03;;
2538;SDS011;1280;49.760;9.664;2023-03-19T06:00:52;7.60;;;3.83;;
2538;SDS011;1280;49.760;9.664;2023-03-19T06:03:25;7.57;;;4.50;;
2538;SDS011;1280;49.760;9.664;2023-03-19T06:05:57;8.13;;;4.33;;
2538;SDS011;1280;49.760;9.664;2023-03-19T06:08:34;10.30;;;4.20;;
2538;SDS011;1280;49.760;9.664;2023-03-19T06:11:18;10.43;;;4.07;;
2538;SDS011;1280;49.760;9.664;2023-03-19T06:13:54;6.50;;;4.00;;
2538;SDS011;1280;49.760;9.664;2023-03-19T06:16:22;7.23;;;4.10;;
2538;SDS011;1280;49.760;9.664;2023-03-19T06:18:53;7.60;;;3.90;;
2538;SDS011;1280;49.760;9.664;2023-03-19T06:21:22;9.20;;;4.13;;
2538;SDS011;1280;49.760;9.664;2023-03-19T06:23:57;10.63;;;4.27;;
2538;SDS011;1280;49.760;9.664;2023-03-19T06:26:32;9.60;;;4.30;;
2538;SDS011;1280;49.760;9.664;2023-03-19T06:29:04;7.57;;;4.37;;
2538;SDS011;1280;49.760;9.664;2023-03-19T06:31:33;7.93;;;4.80;;
2538;SDS011;1280;49.760;9.664;2023-03-19T06:34:20;10.17;;;5.30;;
2538;SDS011;1280;49.760;9.664;2023-03-19T06:36:48;10.17;;;4.53;;
2538;SDS011;1280;49.760;9.664;2023-03-19T06:39:16;7.53;;;4.27;;
2538;SDS011;1280;49.760;9.664;2023-03-19T06:41:44;7.33;;;4.30;;
2538;SDS011;1280;49.760;9.664;2023-03-19T06:44:16;8.30;;;4.67;;
2538;SDS011;1280;49.760;9.664;2023-03-19T06:46:51;7.40;;;4.70;;
2538;SDS011;1280;49.760;9.664;2023-03-19T06:49:21;9.90;;;4.37;;
2538;SDS011;1280;49.760;9.664;2023-03-19T06:51:49;8.87;;;4.40;;
2538;SDS011;1280;49.760;9.664;2023-03-19T06:54:17;10.63;;;4.13;;
2538;SDS011;1280;49.760;9.664;2023-03-19T06:56:45;7.47;;;4.00;;
2538;SDS011;1280;49.760;9.664;2023-03-19T06:59:14;8.20;;;4.70;;
2538;SDS011;1280;49.760;9.664;2023-03-19T07:01:48;11.50;;;4.43;;
2538;SDS011;1280;49.760;9.664;2023-03-19T07:04:16;6.70;;;4.27;;
2538;SDS011;1280;49.760;9.664;2023-03-19T07:06:45;8.00;;;4.30;;
2538;SDS011;1280;49.760;9.664;2023-03-19T07:09:13;6.90;;;4.17;;
2538;SDS011;1280;49.760;9.664;2023-03-19T07:11:41;7.90;;;4.33;;
2538;SDS011;1280;49.760;9.664;2023-03-19T07:14:09;11.63;;;4.40;;
2538;SDS011;1280;49.760;9.664;2023-03-19T07:16:37;10.43;;;5.00;;
2538;SDS011;1280;49.760;9.664;2023-03-19T07:19:05;10.37;;;4.33;;
2538;SDS011;1280;49.760;9.664;2023-03-19T07:21:33;8.47;;;4.60;;
2538;SDS011;1280;49.760;9.664;2023-03-19T07:24:03;8.87;;;4.70;;
2538;SDS011;1280;49.760;9.664;2023-03-19T07:26:32;8.47;;;4.43;;
2538;SDS011;1280;49.760;9.664;2023-03-19T07:29:00;7.43;;;4.20;;
2538;SDS011;1280;49.760;9.664;2023-03-19T07:31:28;7.53;;;4.10;;
2538;SDS011;1280;49.760;9.664;2023-03-19T07:33:56;7.90;;;4.27;;
2538;SDS011;1280;49.760;9.664;2023-03-19T07:36:24;7.47;;;4.37;;
2538;SDS011;1280;49.760;9.664;2023-03-19T07:38:52;7.97;;;4.33;;
2538;SDS011;1280;49.760;9.664;2023-03-19T07:41:22;8.43;;;4.50;;
2538;SDS011;1280;49.760;9.664;2023-03-19T07:43:49;10.53;;;4.17;;
2538;SDS011;1280;49.760;9.664;2023-03-19T07:46:17;10.00;;;4.37;;
2538;SDS011;1280;49.760;9.664;2023-03-19T07:48:46;6.50;;;4.20;;
2538;SDS011;1280;49.760;9.664;2023-03-19T07:51:14;6.50;;;3.97;;
2538;SDS011;1280;49.760;9.664;2023-03-19T07:53:42;8.23;;;4.13;;
2538;SDS011;1280;49.760;9.664;2023-03-19T07:56:10;7.67;;;4.60;;
2538;SDS011;1280;49.760;9.664;2023-03-19T07:58:40;6.90;;;4.07;;
2538;SDS011;1280;49.760;9.664;2023-03-19T08:01:08;8.63;;;4.23;;
2538;SDS011;1280;49.760;9.664;2023-03-19T08:03:36;8.77;;;4.80;;
2538;SDS011;1280;49.760;9.664;2023-03-19T08:06:04;8.03;;;4.50;;
2538;SDS011;1280;49.760;9.664;2023-03-19T08:08:33;8.30;;;4.47;;
2538;SDS011;1280;49.760;9.664;2023-03-19T08:11:02;8.60;;;4.47;;
2538;SDS011;1280;49.760;9.664;2023-03-19T08:13:30;8.27;;;3.93;;
2538;SDS011;1280;49.760;9.664;2023-03-19T08:15:59;7.30;;;3.87;;
2538;SDS011;1280;49.760;9.664;2023-03-19T08:18:27;12.50;;;4.17;;
2538;SDS011;1280;49.760;9.664;2023-03-19T08:20:55;7.70;;;3.67;;
2538;SDS011;1280;49.760;9.664;2023-03-19T08:23:23;8.77;;;4.50;;
2538;SDS011;1280;49.760;9.664;2023-03-19T08:25:52;10.63;;;5.90;;
2538;SDS011;1280;49.760;9.664;2023-03-19T08:28:22;9.70;;;5.33;;
2538;SDS011;1280;49.760;9.664;2023-03-19T08:30:50;11.43;;;5.30;;
2538;SDS011;1280;49.760;9.664;2023-03-19T08:33:19;9.90;;;4.67;;
2538;SDS011;1280;49.760;9.664;2023-03-19T08:35:47;12.20;;;6.30;;
2538;SDS011;1280;49.760;9.664;2023-03-19T08:38:15;10.43;;;5.70;;
2538;SDS011;1280;49.760;9.664;2023-03-19T08:40:44;16.70;;;7.73;;
2538;SDS011;1280;49.760;9.664;2023-03-19T08:43:13;13.50;;;7.83;;
2538;SDS011;1280;49.760;9.664;2023-03-19T08:45:40;9.97;;;5.93;;
2538;SDS011;1280;49.760;9.664;2023-03-19T08:48:08;9.10;;;4.60;;
2538;SDS011;1280;49.760;9.664;2023-03-19T08:50:38;8.40;;;4.87;;
2538;SDS011;1280;49.760;9.664;2023-03-19T08:53:06;7.17;;;4.13;;
2538;SDS011;1280;49.760;9.664;2023-03-19T08:55:34;10.03;;;3.80;;
2538;SDS011;1280;49.760;9.664;2023-03-19T08:58:02;10.63;;;4.90;;
2538;SDS011;1280;49.760;9.664;2023-03-19T09:00:30;8.70;;;4.40;;
2538;SDS011;1280;49.760;9.664;2023-03-19T09:02:58;7.30;;;4.67;;
2538;SDS011;1280;49.760;9.664;2023-03-19T09:05:26;14.23;;;8.90;;
2538;SDS011;1280;49.760;9.664;2023-03-19T09:07:56;28.83;;;19.93;;
2538;SDS011;1280;49.760;9.664;2023-03-19T09:10:24;15.77;;;7.93;;
2538;SDS011;1280;49.760;9.664;2023-03-19T09:12:52;11.43;;;7.23;;
2538;SDS011;1280;49.760;9.664;2023-03-19T09:15:20;11.40;;;6.30;;
2538;SDS011;1280;49.760;9.664;2023-03-19T09:17:48;12.63;;;6.60;;
2538;SDS011;1280;49.760;9.664;2023-03-19T09:20:16;11.40;;;5.00;;
2538;SDS011;1280;49.760;9.664;2023-03-19T09:22:44;11.60;;;5.93;;
2538;SDS011;1280;49.760;9.664;2023-03-19T09:25:14;8.23;;;4.50;;
2538;SDS011;1280;49.760;9.664;2023-03-19T09:27:42;6.60;;;4.53;;
2538;SDS011;1280;49.760;9.664;2023-03-19T09:30:10;7.27;;;4.13;;
2538;SDS011;1280;49.760;9.664;2023-03-19T09:32:38;9.67;;;4.60;;
2538;SDS011;1280;49.760;9.664;2023-03-19T09:35:07;6.83;;;4.50;;
2538;SDS011;1280;49.760;9.664;2023-03-19T09:37:35;7.30;;;4.53;;
2538;SDS011;1280;49.760;9.664;2023-03-19T09:40:04;9.20;;;4.50;;
2538;SDS011;1280;49.760;9.664;2023-03-19T09:42:44;6.33;;;3.90;;
2538;SDS011;1280;49.760;9.664;2023-03-19T09:45:22;6.77;;;3.80;;
2538;SDS011;1280;49.760;9.664;2023-03-19T09:47:52;8.10;;;4.10;;
2538;SDS011;1280;49.760;9.664;2023-03-19T09:50:23;6.03;;;3.30;;
2538;SDS011;1280;49.760;9.664;2023-03-19T09:52:54;8.63;;;4.17;;
2538;SDS011;1280;49.760;9.664;2023-03-19T09:55:34;6.90;;;3.87;;
2538;SDS011;1280;49.760;9.664;2023-03-19T09:58:12;9.20;;;3.80;;
2538;SDS011;1280;49.760;9.664;2023-03-19T10:00:42;10.10;;;4.10;;
2538;SDS011;1280;49.760;9.664;2023-03-19T10:03:19;13.73;;;3.70;;
2538;SDS011;1280;49.760;9.664;2023-03-19T10:06:20;7.07;;;3.80;;
2538;SDS011;1280;49.760;9.664;2023-03-19T10:08:58;5.77;;;3.50;;
2538;SDS011;1280;49.760;9.664;2023-03-19T10:11:40;6.27;;;3.73;;
2538;SDS011;1280;49.760;9.664;2023-03-19T10:14:27;7.10;;;3.70;;
2538;SDS011;1280;49.760;9.664;2023-03-19T10:17:13;7.03;;;3.40;;
2538;SDS011;1280;49.760;9.664;2023-03-19T10:19:45;8.27;;;4.30;;
2538;SDS011;1280;49.760;9.664;2023-03-19T10:22:17;6.93;;;3.97;;
2538;SDS011;1280;49.760;9.664;2023-03-19T10:24:48;8.20;;;3.30;;
2538;SDS011;1280;49.760;9.664;2023-03-19T10:27:20;15.60;;;8.60;;
2538;SDS011;1280;49.760;9.664;2023-03-19T10:29:55;16.47;;;10.50;;
2538;SDS011;1280;49.760;9.664;2023-03-19T10:32:27;10.90;;;5.73;;
2538;SDS011;1280;49.760;9.664;2023-03-19T10:35:05;9.10;;;5.23;;
2538;SDS011;1280;49.760;9.664;2023-03-19T10:37:37;10.10;;;5.23;;
2538;SDS011;1280;49.760;9.664;2023-03-19T10:40:10;9.23;;;4.90;;
2538;SDS011;1280;49.760;9.664;2023-03-19T10:42:49;12.00;;;6.63;;
2538;SDS011;1280;49.760;9.664;2023-03-19T10:45:30;14.73;;;7.03;;
2538;SDS011;1280;49.760;9.664;2023-03-19T10:48:02;10.03;;;5.37;;
2538;SDS011;1280;49.760;9.664;2023-03-19T10:50:33;7.37;;;3.60;;
2538;SDS011;1280;49.760;9.664;2023-03-19T10:53:04;44.40;;;28.40;;
2538;SDS011;1280;49.760;9.664;2023-03-19T10:55:34;22.03;;;12.00;;
2538;SDS011;1280;49.760;9.664;2023-03-19T10:58:03;18.33;;;11.40;;
2538;SDS011;1280;49.760;9.664;2023-03-19T11:00:34;10.13;;;5.10;;
2538;SDS011;1280;49.760;9.664;2023-03-19T11:03:02;6.13;;;3.47;;
2538;SDS011;1280;49.760;9.664;2023-03-19T11:05:31;5.83;;;3.60;;
2538;SDS011;1280;49.760;9.664;2023-03-19T11:08:01;9.90;;;3.60;;
2538;SDS011;1280;49.760;9.664;2023-03-19T11:10:32;10.27;;;4.10;;
2538;SDS011;1280;49.760;9.664;2023-03-19T11:13:03;7.30;;;3.27;;
2538;SDS011;1280;49.760;9.664;2023-03-19T11:15:34;9.03;;;3.50;;
2538;SDS011;1280;49.760;9.664;2023-03-19T11:18:05;7.53;;;3.93;;
2538;SDS011;1280;49.760;9.664;2023-03-19T11:20:36;8.97;;;4.00;;
2538;SDS011;1280;49.760;9.664;2023-03-19T11:23:05;8.03;;;3.43;;
2538;SDS011;1280;49.760;9.664;2023-03-19T11:25:38;8.00;;;3.90;;
2538;SDS011;1280;49.760;9.664;2023-03-19T11:28:10;6.90;;;3.10;;
2538;SDS011;1280;49.760;9.664;2023-03-19T11:30:42;6.17;;;2.90;;
2538;SDS011;1280;49.760;9.664;2023-03-19T11:33:26;10.27;;;3.83;;
2538;SDS011;1280;49.760;9.664;2023-03-19T11:36:18;7.50;;;2.97;;
2538;SDS011;1280;49.760;9.664;2023-03-19T11:38:56;6.70;;;2.83;;
2538;SDS011;1280;49.760;9.664;2023-03-19T11:41:43;6.10;;;2.67;;
2538;SDS011;1280;49.760;9.664;2023-03-19T11:44:21;6.30;;;2.90;;
2538;SDS011;1280;49.760;9.664;2023-03-19T11:46:57;7.60;;;3.00;;
2538;SDS011;1280;49.760;9.664;2023-03-19T11:49:49;6.80;;;3.00;;
2538;SDS011;1280;49.760;9.664;2023-03-19T11:52:28;6.10;;;2.60;;
2538;SDS011;1280;49.760;9.664;2023-03-19T11:55:07;7.07;;;3.00;;
2538;SDS011;1280;49.760;9.664;2023-03-19T11:57:51;5.13;;;2.00;;
2538;SDS011;1280;49.760;9.664;2023-03-19T12:00:29;6.50;;;2.70;;
2538;SDS011;1280;49.760;9.664;2023-03-19T12:03:10;6.67;;;2.83;;
2538;SDS011;1280;49.760;9.664;2023-03-19T12:06:00;4.37;;;2.03;;
2538;SDS011;1280;49.760;9.664;2023-03-19T12:08:36;7.20;;;3.43;;
2538;SDS011;1280;49.760;9.664;2023-03-19T12:11:12;6.40;;;2.30;;
2538;SDS011;1280;49.760;9.664;2023-03-19T12:13:50;5.40;;;2.20;;
2538;SDS011;1280;49.760;9.664;2023-03-19T12:16:27;6.67;;;2.60;;
2538;SDS011;1280;49.760;9.664;2023-03-19T12:19:16;5.30;;;2.23;;
2538;SDS011;1280;49.760;9.664;2023-03-19T12:21:58;4.70;;;1.93;;
2538;SDS011;1280;49.760;9.664;2023-03-19T12:24:38;4.27;;;1.73;;
2538;SDS011;1280;49.760;9.664;2023-03-19T12:27:27;4.80;;;1.87;;
2538;SDS011;1280;49.760;9.664;2023-03-19T12:30:01;4.93;;;2.20;;
2538;SDS011;1280;49.760;9.664;2023-03-19T12:32:39;6.37;;;2.17;;
2538;SDS011;1280;49.760;9.664;2023-03-19T12:35:23;6.90;;;1.97;;
2538;SDS011;1280;49.760;9.664;2023-03-19T12:37:58;5.47;;;1.83;;
2538;SDS011;1280;49.760;9.664;2023-03-19T12:40:33;6.20;;;2.40;;
2538;SDS011;1280;49.760;9.664;2023-03-19T12:43:05;6.63;;;2.00;;
2538;SDS011;1280;49.760;9.664;2023-03-19T12:45:41;6.90;;;1.97;;
2538;SDS011;1280;49.760;9.664;2023-03-19T12:48:11;6.37;;;2.20;;
2538;SDS011;1280;49.760;9.664;2023-03-19T12:50:46;5.60;;;2.40;;
2538;SDS011;1280;49.760;9.664;2023-03-19T12:53:24;4.70;;;1.83;;
2538;SDS011;1280;49.760;9.664;2023-03-19T12:55:57;5.20;;;2.80;;
2538;SDS011;1280;49.760;9.664;2023-03-19T12:58:35;5.93;;;2.20;;
2538;SDS011;1280;49.760;9.664;2023-03-19T13:01:09;6.53;;;2.13;;
2538;SDS011;1280;49.760;9.664;2023-03-19T13:03:44;4.70;;;1.80;;
2538;SDS011;1280;49.760;9.664;2023-03-19T13:06:23;4.93;;;1.90;;
2538;SDS011;1280;49.760;9.664;2023-03-19T13:08:56;5.30;;;2.03;;
2538;SDS011;1280;49.760;9.664;2023-03-19T13:11:32;5.13;;;2.00;;
2538;SDS011;1280;49.760;9.664;2023-03-19T13:14:07;5.53;;;2.03;;
2538;SDS011;1280;49.760;9.664;2023-03-19T13:16:44;5.27;;;2.10;;
2538;SDS011;1280;49.760;9.664;2023-03-19T13:19:19;4.90;;;1.90;;
2538;SDS011;1280;49.760;9.664;2023-03-19T13:21:52;4.50;;;1.97;;
2538;SDS011;1280;49.760;9.664;2023-03-19T13:24:25;5.87;;;2.23;;
2538;SDS011;1280;49.760;9.664;2023-03-19T13:26:55;5.73;;;2.50;;
2538;SDS011;1280;49.760;9.664;2023-03-19T13:29:26;5.40;;;2.40;;
2538;SDS011;1280;49.760;9.664;2023-03-19T13:32:04;7.53;;;2.33;;
2538;SDS011;1280;49.760;9.664;2023-03-19T13:34:35;5.23;;;2.27;;
2538;SDS011;1280;49.760;9.664;2023-03-19T13:37:07;7.17;;;2.20;;
2538;SDS011;1280;49.760;9.664;2023-03-19T13:39:41;6.57;;;2.30;;
2538;SDS011;1280;49.760;9.664;2023-03-19T13:42:22;6.20;;;2.60;;
2538;SDS011;1280;49.760;9.664;2023-03-19T13:45:33;5.80;;;2.07;;
2538;SDS011;1280;49.760;9.664;2023-03-19T13:47:59;8.03;;;2.13;;
2538;SDS011;1280;49.760;9.664;2023-03-19T13:51:01;5.23;;;2.33;;
2538;SDS011;1280;49.760;9.664;2023-03-19T13:53:36;7.17;;;2.40;;
2538;SDS011;1280;49.760;9.664;2023-03-19T13:56:07;5.93;;;2.50;;
2538;SDS011;1280;49.760;9.664;2023-03-19T14:01:52;4.87;;;2.17;;
2538;SDS011;1280;49.760;9.664;2023-03-19T14:04:23;6.83;;;2.40;;
2538;SDS011;1280;49.760;9.664;2023-03-19T14:06:55;7.23;;;2.30;;
2538;SDS011;1280;49.760;9.664;2023-03-19T14:09:31;6.37;;;2.40;;
2538;SDS011;1280;49.760;9.664;2023-03-19T14:12:09;5.33;;;2.00;;
2538;SDS011;1280;49.760;9.664;2023-03-19T14:14:47;5.00;;;1.77;;
2538;SDS011;1280;49.760;9.664;2023-03-19T14:17:18;6.00;;;2.80;;
2538;SDS011;1280;49.760;9.664;2023-03-19T14:19:50;5.10;;;2.27;;
2538;SDS011;1280;49.760;9.664;2023-03-19T14:22:20;7.20;;;2.33;;
2538;SDS011;1280;49.760;9.664;2023-03-19T14:25:11;4.50;;;2.03;;
2538;SDS011;1280;49.760;9.664;2023-03-19T14:27:43;5.97;;;2.47;;
2538;SDS011;1280;49.760;9.664;2023-03-19T14:30:18;6.23;;;2.60;;
2538;SDS011;1280;49.760;9.664;2023-03-19T14:32:54;7.50;;;2.80;;
2538;SDS011;1280;49.760;9.664;2023-03-19T14:35:25;6.30;;;2.43;;
2538;SDS011;1280;49.760;9.664;2023-03-19T14:37:53;6.50;;;2.70;;
2538;SDS011;1280;49.760;9.664;2023-03-19T14:40:23;6.53;;;2.57;;
2538;SDS011;1280;49.760;9.664;2023-03-19T14:42:56;8.40;;;2.70;;
2538;SDS011;1280;49.760;9.664;2023-03-19T14:45:40;13.27;;;3.40;;
2538;SDS011;1280;49.760;9.664;2023-03-19T14:48:39;6.87;;;3.10;;
2538;SDS011;1280;49.760;9.664;2023-03-19T14:51:50;6.70;;;3.47;;
2538;SDS011;1280;49.760;9.664;2023-03-19T14:54:25;7.03;;;2.87;;
2538;SDS011;1280;49.760;9.664;2023-03-19T14:57:04;9.47;;;2.70;;
2538;SDS011;1280;49.760;9.664;2023-03-19T14:59:36;8.43;;;3.20;;
2538;SDS011;1280;49.760;9.664;2023-03-19T15:02:14;10.40;;;3.50;;
2538;SDS011;1280;49.760;9.664;2023-03-19T15:04:47;5.27;;;2.80;;
2538;SDS011;1280;49.760;9.664;2023-03-19T15:07:18;7.43;;;3.50;;
2538;SDS011;1280;49.760;9.664;2023-03-19T15:09:50;12.33;;;3.90;;
2538;SDS011;1280;49.760;9.664;2023-03-19T15:15:28;8.20;;;3.50;;
2538;SDS011;1280;49.760;9.664;2023-03-19T15:18:03;7.70;;;3.47;;
2538;SDS011;1280;49.760;9.664;2023-03-19T15:20:36;7.33;;;3.90;;
2538;SDS011;1280;49.760;9.664;2023-03-19T15:23:10;7.10;;;3.93;;
2538;SDS011;1280;49.760;9.664;2023-03-19T15:25:53;5.93;;;3.37;;
2538;SDS011;1280;49.760;9.664;2023-03-19T15:28:23;9.20;;;4.20;;
2538;SDS011;1280;49.760;9.664;2023-03-19T15:30:54;8.50;;;3.90;;
2538;SDS011;1280;49.760;9.664;2023-03-19T15:33:37;10.70;;;3.60;;
2538;SDS011;1280;49.760;9.664;2023-03-19T15:36:11;9.47;;;4.00;;
2538;SDS011;1280;49.760;9.664;2023-03-19T15:38:45;12.57;;;3.50;;
2538;SDS011;1280;49.760;9.664;2023-03-19T15:41:17;13.30;;;4.37;;
2538;SDS011;1280;49.760;9.664;2023-03-19T15:43:46;7.97;;;4.07;;
2538;SDS011;1280;49.760;9.664;2023-03-19T15:46:15;8.07;;;3.20;;